Time;durP1;ratioP1;P1;durP2;ratioP2;P2;SDS_P1;SDS_P2;PMS_P1;PMS_P2;Temp;Humidity;BMP_temperature;BMP_pressure;BME280_temperature;BME280_humidity;BME280_pressure;Samples;Min_cycle;Max_cycle;Signal;HPM_P1;HPM_P2
2023/09/05 00:00:10;;;;;;;20.23;7.13;;;24.20;99.90;;;;;;5012020;28;20025;-59
2023/09/05 00:02:40;;;;;;;22.17;7.78;;;24.10;99.90;;;;;;5012402;28;20100;-59
2023/09/05 00:05:07;;;;;;;23.67;7.47;;;24.00;99.90;;;;;;5011702;28;20105;-59
2023/09/05 00:07:35;;;;;;;21.00;7.40;;;24.00;99.90;;;;;;5012365;28;20399;-59
2023/09/05 00:10:03;;;;;;;20.92;7.38;;;24.00;99.90;;;;;;5012521;28;20459;-59
2023/09/05 00:12:30;;;;;;;26.20;7.80;;;24.00;99.90;;;;;;5012062;28;20053;-58
2023/09/05 00:14:55;;;;;;;20.92;8.10;;;23.80;99.90;;;;;;5011860;28;20077;-59
2023/09/05 00:17:21;;;;;;;25.63;9.20;;;23.80;99.90;;;;;;5011653;28;20029;-60
2023/09/05 00:19:49;;;;;;;24.23;8.15;;;24.00;99.90;;;;;;5012206;28;20036;-59
2023/09/05 00:22:15;;;;;;;23.02;7.88;;;24.00;99.90;;;;;;5034578;28;20041;-59
2023/09/05 00:24:42;;;;;;;22.33;7.97;;;23.70;99.90;;;;;;5053791;28;20084;-59
2023/09/05 00:27:11;;;;;;;26.10;8.27;;;23.60;99.90;;;;;;5053601;28;20521;-59
2023/09/05 00:29:38;;;;;;;25.95;8.68;;;23.50;99.90;;;;;;5053508;28;20371;-59
2023/09/05 00:32:04;;;;;;;24.17;8.38;;;23.50;99.90;;;;;;5053380;28;20084;-59
2023/09/05 00:34:32;;;;;;;23.58;8.27;;;23.30;99.90;;;;;;5053601;28;20020;-60
2023/09/05 00:37:00;;;;;;;18.35;8.07;;;23.20;99.90;;;;;;5053614;28;20083;-59
2023/09/05 00:39:27;;;;;;;23.58;8.60;;;23.00;99.90;;;;;;5053794;28;20021;-59
2023/09/05 00:41:54;;;;;;;18.95;7.78;;;22.90;99.90;;;;;;5053568;28;20033;-60
2023/09/05 00:44:20;;;;;;;23.42;8.15;;;22.90;99.90;;;;;;5053538;28;20052;-59
2023/09/05 00:46:46;;;;;;;19.25;8.18;;;22.90;99.90;;;;;;5052911;28;20036;-60
2023/09/05 00:49:15;;;;;;;23.23;8.50;;;22.80;99.90;;;;;;5053733;28;20080;-59
2023/09/05 00:51:43;;;;;;;22.98;8.48;;;22.70;99.90;;;;;;5062300;28;20097;-59
2023/09/05 00:54:10;;;;;;;19.95;8.15;;;22.70;99.90;;;;;;5073251;28;20485;-59
2023/09/05 00:56:36;;;;;;;23.13;8.98;;;22.70;99.90;;;;;;5054015;28;20039;-59
2023/09/05 00:59:06;;;;;;;20.90;8.15;;;22.60;99.90;;;;;;5073466;28;20025;-59
2023/09/05 01:01:31;;;;;;;24.38;9.05;;;22.60;99.90;;;;;;5072941;28;20107;-59
2023/09/05 01:03:57;;;;;;;20.13;7.70;;;22.50;99.90;;;;;;5073144;28;20127;-59
2023/09/05 01:07:01;;;;;;;24.38;8.95;;;22.60;99.90;;;;;;5073145;28;20040;-59
2023/09/05 01:09:32;;;;;;;24.40;8.70;;;22.90;99.90;;;;;;5073011;28;20109;-59
2023/09/05 01:11:59;;;;;;;27.42;8.32;;;22.90;99.90;;;;;;5072976;28;20047;-59
2023/09/05 01:14:24;;;;;;;21.70;8.43;;;22.90;99.90;;;;;;5072806;28;20111;-59
2023/09/05 01:16:50;;;;;;;25.48;9.13;;;22.90;99.90;;;;;;5072364;28;20151;-59
2023/09/05 01:19:17;;;;;;;21.55;8.73;;;22.90;99.90;;;;;;5073113;28;20020;-58
2023/09/05 01:21:57;;;;;;;22.05;8.07;;;22.80;99.90;;;;;;5072588;28;20032;-59
2023/09/05 01:24:23;;;;;;;23.13;8.00;;;22.90;99.90;;;;;;5072759;28;20408;-59
2023/09/05 01:26:51;;;;;;;21.80;8.95;;;22.90;99.90;;;;;;5072453;28;20047;-59
2023/09/05 01:29:25;;;;;;;19.67;8.00;;;22.90;99.90;;;;;;5072273;28;20027;-58
2023/09/05 01:31:52;;;;;;;24.35;8.32;;;22.90;99.90;;;;;;5072962;28;20036;-59
2023/09/05 01:34:18;;;;;;;22.15;7.47;;;22.90;99.90;;;;;;5072573;28;20090;-60
2023/09/05 01:36:44;;;;;;;18.77;7.28;;;23.00;99.90;;;;;;5072659;28;20036;-58
2023/09/05 01:39:09;;;;;;;19.42;7.18;;;23.00;99.90;;;;;;5072649;28;20024;-58
2023/09/05 01:41:35;;;;;;;19.67;7.70;;;22.90;99.90;;;;;;5072409;28;20529;-58
2023/09/05 01:44:01;;;;;;;19.88;7.55;;;22.70;99.90;;;;;;5072042;28;20028;-59
2023/09/05 01:46:26;;;;;;;16.52;7.68;;;22.50;99.90;;;;;;5072141;28;20041;-59
2023/09/05 01:48:52;;;;;;;21.73;8.98;;;22.40;99.90;;;;;;5071927;28;20055;-60
2023/09/05 01:51:18;;;;;;;23.55;7.80;;;22.30;99.90;;;;;;5072491;28;20079;-59
2023/09/05 01:53:43;;;;;;;19.00;8.23;;;22.20;99.90;;;;;;5071955;28;20024;-59
2023/09/05 01:56:09;;;;;;;20.05;8.43;;;22.20;99.90;;;;;;5072073;28;20504;-59
2023/09/05 01:58:35;;;;;;;20.27;8.55;;;22.10;99.90;;;;;;5071742;28;20555;-60
2023/09/05 02:01:03;;;;;;;20.98;8.18;;;22.20;99.90;;;;;;5071742;28;20547;-59
2023/09/05 02:03:29;;;;;;;21.42;8.70;;;22.10;99.90;;;;;;5071851;28;20555;-58
2023/09/05 02:05:55;;;;;;;17.95;7.97;;;22.00;99.90;;;;;;5071995;28;20036;-59
2023/09/05 02:08:21;;;;;;;19.55;8.50;;;22.00;99.90;;;;;;5071350;28;20035;-59
2023/09/05 02:10:47;;;;;;;20.80;8.25;;;21.90;99.90;;;;;;5071816;28;20032;-59
2023/09/05 02:13:13;;;;;;;22.80;8.75;;;21.90;99.90;;;;;;5071508;28;20063;-60
2023/09/05 02:15:39;;;;;;;19.45;8.32;;;21.70;99.90;;;;;;5071771;28;20024;-59
2023/09/05 02:18:10;;;;;;;19.27;8.68;;;21.90;99.90;;;;;;5071641;28;20031;-59
2023/09/05 02:20:40;;;;;;;18.17;8.68;;;21.70;99.90;;;;;;5071771;28;20440;-59
2023/09/05 02:23:07;;;;;;;20.27;9.27;;;21.60;99.90;;;;;;5071673;28;20028;-59
2023/09/05 02:25:33;;;;;;;22.58;8.93;;;21.80;99.90;;;;;;5071806;28;20040;-59
2023/09/05 02:27:59;;;;;;;17.15;7.97;;;22.00;99.90;;;;;;5070923;28;20521;-58
2023/09/05 02:30:25;;;;;;;19.80;8.60;;;22.20;99.90;;;;;;5071439;28;20048;-59
2023/09/05 02:32:55;;;;;;;18.65;8.60;;;22.20;99.90;;;;;;5071458;28;20021;-59
2023/09/05 02:35:27;;;;;;;16.45;8.10;;;22.20;99.90;;;;;;5071395;28;20052;-59
2023/09/05 02:37:53;;;;;;;23.05;9.02;;;22.20;99.90;;;;;;5071738;28;20039;-59
2023/09/05 02:40:19;;;;;;;23.27;9.25;;;22.20;99.90;;;;;;5071064;28;20033;-59
2023/09/05 02:42:45;;;;;;;17.00;8.80;;;22.20;99.90;;;;;;5070805;28;20047;-59
2023/09/05 02:45:12;;;;;;;19.52;8.80;;;22.20;99.90;;;;;;5071297;28;20445;-59
2023/09/05 02:47:38;;;;;;;21.92;9.18;;;22.20;99.90;;;;;;5071588;28;20452;-59
2023/09/05 02:50:04;;;;;;;25.58;9.85;;;22.20;99.90;;;;;;5071345;28;20052;-59
2023/09/05 02:52:32;;;;;;;22.17;9.98;;;22.10;99.90;;;;;;5071197;28;20036;-59
2023/09/05 02:54:57;;;;;;;20.90;9.57;;;22.10;99.90;;;;;;5071177;28;20013;-60
2023/09/05 02:57:23;;;;;;;23.20;9.93;;;22.00;99.90;;;;;;5070644;28;20024;-59
2023/09/05 02:59:53;;;;;;;24.38;9.57;;;21.90;99.90;;;;;;5071123;28;20020;-59
2023/09/05 03:02:19;;;;;;;21.73;10.05;;;21.70;99.90;;;;;;5071134;28;20032;-59
2023/09/05 03:04:45;;;;;;;20.67;10.10;;;21.60;99.90;;;;;;5071096;28;20024;-59
2023/09/05 03:07:10;;;;;;;18.83;9.82;;;21.40;99.90;;;;;;5071277;28;20068;-59
2023/09/05 03:09:37;;;;;;;22.35;10.40;;;21.30;99.90;;;;;;5070882;28;20067;-59
2023/09/05 03:12:05;;;;;;;20.63;9.98;;;21.10;99.90;;;;;;5070221;28;20083;-59
2023/09/05 03:14:31;;;;;;;19.45;10.18;;;21.10;99.90;;;;;;5071098;28;20067;-60
2023/09/05 03:16:57;;;;;;;21.92;10.48;;;21.00;99.90;;;;;;5071265;28;20040;-59
2023/09/05 03:19:23;;;;;;;19.92;9.77;;;21.00;99.90;;;;;;5071363;28;20056;-59
2023/09/05 03:21:49;;;;;;;23.00;10.98;;;20.80;99.90;;;;;;5074904;28;20064;-59
2023/09/05 03:24:18;;;;;;;19.63;10.30;;;20.80;99.90;;;;;;5075023;28;20066;-59
2023/09/05 03:26:46;;;;;;;18.77;10.30;;;20.80;99.90;;;;;;5074675;28;20039;-59
2023/09/05 03:29:15;;;;;;;18.77;10.50;;;20.80;99.90;;;;;;5074984;28;20397;-59
2023/09/05 03:31:41;;;;;;;18.45;10.48;;;20.70;99.90;;;;;;5074768;28;20033;-59
2023/09/05 03:34:07;;;;;;;16.42;10.65;;;20.80;99.90;;;;;;5075125;28;20047;-59
2023/09/05 03:36:34;;;;;;;16.75;10.00;;;20.70;99.90;;;;;;5075130;28;20036;-59
2023/09/05 03:39:00;;;;;;;18.35;10.40;;;20.60;99.90;;;;;;5074631;28;20024;-60
2023/09/05 03:41:25;;;;;;;18.30;10.38;;;20.60;99.90;;;;;;5074166;28;20481;-60
2023/09/05 03:43:51;;;;;;;20.30;10.55;;;20.60;99.90;;;;;;5074657;28;20032;-59
2023/09/05 03:46:17;;;;;;;19.70;11.15;;;20.70;99.90;;;;;;5074545;28;20449;-59
2023/09/05 03:48:42;;;;;;;18.23;10.07;;;20.90;99.90;;;;;;5074545;28;20374;-59
2023/09/05 03:51:08;;;;;;;18.35;10.13;;;21.00;99.90;;;;;;5074320;28;20036;-60
2023/09/05 03:53:34;;;;;;;15.88;9.70;;;21.00;99.90;;;;;;5074806;28;20013;-60
2023/09/05 03:55:59;;;;;;;18.67;9.80;;;21.00;99.90;;;;;;5073873;28;20020;-59
2023/09/05 03:58:25;;;;;;;14.68;10.10;;;21.00;99.90;;;;;;5074324;28;20407;-59
2023/09/05 04:00:51;;;;;;;14.98;10.63;;;21.00;99.90;;;;;;5074125;28;20039;-59
2023/09/05 04:03:16;;;;;;;15.25;9.73;;;21.00;99.90;;;;;;5074358;28;20025;-59
2023/09/05 04:05:42;;;;;;;15.02;10.18;;;20.90;99.90;;;;;;5074532;28;20036;-59
2023/09/05 04:08:09;;;;;;;19.25;10.18;;;21.00;99.90;;;;;;5074069;28;20021;-59
2023/09/05 04:10:36;;;;;;;21.02;11.13;;;21.00;99.90;;;;;;5073542;28;20079;-59
2023/09/05 04:13:02;;;;;;;20.85;10.52;;;21.10;99.90;;;;;;5074085;28;20096;-59
2023/09/05 04:15:28;;;;;;;17.75;10.63;;;21.00;99.90;;;;;;5074164;28;20115;-59
2023/09/05 04:17:53;;;;;;;13.18;10.15;;;21.10;99.90;;;;;;5074128;28;20047;-59
2023/09/05 04:20:19;;;;;;;15.30;10.00;;;20.80;99.90;;;;;;5074081;28;20028;-59
2023/09/05 04:22:45;;;;;;;16.10;10.35;;;20.70;99.90;;;;;;5073437;28;20478;-59
2023/09/05 04:25:11;;;;;;;23.30;10.57;;;20.60;99.90;;;;;;5073738;28;20540;-59
2023/09/05 04:27:36;;;;;;;18.15;10.38;;;20.50;99.90;;;;;;5073686;28;20087;-59
2023/09/05 04:30:03;;;;;;;21.23;10.52;;;20.50;99.90;;;;;;5073669;28;20024;-59
2023/09/05 04:32:32;;;;;;;17.70;10.65;;;20.40;99.90;;;;;;5073944;28;20025;-59
2023/09/05 04:34:59;;;;;;;17.98;10.80;;;20.20;99.90;;;;;;5073872;28;20057;-60
2023/09/05 04:37:25;;;;;;;15.63;10.43;;;20.20;99.90;;;;;;5055710;28;20374;-59
2023/09/05 04:39:52;;;;;;;14.38;10.20;;;20.30;99.90;;;;;;5073079;28;20036;-59
2023/09/05 04:42:17;;;;;;;17.02;10.50;;;20.30;99.90;;;;;;5073967;28;20031;-59
2023/09/05 04:44:43;;;;;;;24.02;10.57;;;20.30;99.90;;;;;;5073626;28;20028;-58
2023/09/05 04:47:29;;;;;;;17.75;10.10;;;20.20;99.90;;;;;;5073373;28;20032;-59
2023/09/05 04:49:57;;;;;;;17.17;9.65;;;20.10;99.90;;;;;;5073480;28;20029;-59
2023/09/05 04:52:27;;;;;;;17.15;10.52;;;20.20;99.90;;;;;;5072848;28;20110;-59
2023/09/05 04:54:54;;;;;;;15.82;11.00;;;20.10;99.90;;;;;;5073203;28;20025;-60
2023/09/05 04:57:20;;;;;;;16.83;9.98;;;20.10;99.90;;;;;;5073328;28;20024;-59
2023/09/05 04:59:47;;;;;;;17.98;10.55;;;20.00;99.90;;;;;;5073233;28;20640;-59
2023/09/05 05:02:16;;;;;;;16.25;10.40;;;20.00;99.90;;;;;;5073121;28;20032;-59
2023/09/05 05:04:45;;;;;;;18.92;10.90;;;20.00;99.90;;;;;;5073507;28;20017;-59
2023/09/05 05:07:11;;;;;;;15.80;10.13;;;20.10;99.90;;;;;;5072679;28;20047;-59
2023/09/05 05:09:40;;;;;;;19.02;11.18;;;20.30;99.90;;;;;;5072935;28;20448;-59
2023/09/05 05:12:07;;;;;;;18.80;9.80;;;20.40;99.90;;;;;;5072876;28;20112;-59
2023/09/05 05:14:32;;;;;;;18.02;10.25;;;20.50;99.90;;;;;;5073370;28;20385;-59
2023/09/05 05:16:58;;;;;;;17.55;9.88;;;20.50;99.90;;;;;;5072897;28;20029;-59
2023/09/05 05:19:24;;;;;;;18.48;9.70;;;20.60;99.90;;;;;;5072673;28;20108;-59
2023/09/05 05:21:51;;;;;;;16.33;10.60;;;20.60;99.90;;;;;;5072188;28;20094;-59
2023/09/05 05:24:16;;;;;;;17.63;10.40;;;20.60;99.90;;;;;;5072797;28;20405;-59
2023/09/05 05:26:43;;;;;;;22.25;10.98;;;20.60;99.90;;;;;;5072791;28;20048;-59
2023/09/05 05:29:09;;;;;;;15.75;10.18;;;20.60;99.90;;;;;;5072577;28;20025;-59
2023/09/05 05:31:36;;;;;;;13.35;9.85;;;20.50;99.90;;;;;;5072719;28;20512;-59
2023/09/05 05:34:02;;;;;;;16.10;10.65;;;20.60;99.90;;;;;;5072526;28;20024;-58
2023/09/05 05:36:29;;;;;;;16.23;10.13;;;20.60;99.90;;;;;;5072319;28;20030;-59
2023/09/05 05:38:56;;;;;;;18.77;10.02;;;20.50;99.90;;;;;;5072499;28;20033;-59
2023/09/05 05:41:22;;;;;;;13.85;9.75;;;20.30;99.90;;;;;;5072446;28;20504;-60
2023/09/05 05:43:48;;;;;;;13.10;9.88;;;20.20;99.90;;;;;;5071707;28;20057;-60
2023/09/05 05:46:14;;;;;;;17.60;9.85;;;20.00;99.90;;;;;;5072426;28;20036;-60
2023/09/05 05:48:46;;;;;;;16.95;10.35;;;20.00;99.90;;;;;;5072741;28;20012;-60
2023/09/05 05:51:14;;;;;;;13.57;9.57;;;20.00;99.90;;;;;;5071615;28;20025;-59
2023/09/05 05:53:40;;;;;;;13.30;9.63;;;19.90;99.90;;;;;;5072370;28;20025;-60
2023/09/05 05:56:08;;;;;;;11.82;9.43;;;19.90;99.90;;;;;;5072266;28;20050;-59
2023/09/05 05:58:34;;;;;;;14.00;9.40;;;19.90;99.90;;;;;;5072100;28;20029;-60
2023/09/05 06:01:00;;;;;;;10.10;8.52;;;19.80;99.90;;;;;;5072017;28;20086;-59
2023/09/05 06:03:26;;;;;;;12.80;9.00;;;19.80;99.90;;;;;;5071926;28;20052;-60
2023/09/05 06:05:52;;;;;;;12.55;8.73;;;19.90;99.90;;;;;;5071561;28;20104;-60
2023/09/05 06:08:18;;;;;;;11.13;8.70;;;19.90;99.90;;;;;;5072153;28;20016;-60
2023/09/05 06:10:44;;;;;;;13.27;7.95;;;19.80;99.90;;;;;;5071697;28;20104;-59
2023/09/05 06:13:11;;;;;;;9.63;7.85;;;19.80;99.90;;;;;;5071814;28;20017;-59
2023/09/05 06:15:37;;;;;;;10.90;7.45;;;19.90;99.90;;;;;;5071746;28;20028;-58
2023/09/05 06:18:05;;;;;;;9.52;7.40;;;19.80;99.90;;;;;;5071479;28;20470;-59
2023/09/05 06:20:34;;;;;;;11.52;7.93;;;19.80;99.90;;;;;;5071011;28;20120;-59
2023/09/05 06:23:04;;;;;;;9.18;7.53;;;19.90;99.90;;;;;;5071758;28;20033;-60
2023/09/05 06:25:29;;;;;;;10.55;7.30;;;20.10;99.90;;;;;;5071499;28;20025;-60
2023/09/05 06:27:55;;;;;;;12.75;8.30;;;20.30;99.90;;;;;;5071178;28;20562;-60
2023/09/05 06:30:22;;;;;;;8.52;7.63;;;20.40;99.90;;;;;;5071483;28;20052;-59
2023/09/05 06:32:48;;;;;;;10.30;7.40;;;20.60;99.90;;;;;;5071484;28;20033;-57
2023/09/05 06:35:14;;;;;;;9.85;7.22;;;20.60;99.90;;;;;;5071289;28;20033;-58
2023/09/05 06:37:40;;;;;;;12.35;7.50;;;20.80;99.90;;;;;;5071444;28;20448;-59
2023/09/05 06:40:18;;;;;;;9.30;7.25;;;20.70;99.90;;;;;;5071375;28;20104;-59
2023/09/05 06:42:44;;;;;;;10.27;7.00;;;20.80;99.90;;;;;;5071364;28;20028;-58
2023/09/05 06:45:11;;;;;;;13.75;7.63;;;20.90;99.90;;;;;;5071347;28;20028;-59
2023/09/05 06:47:36;;;;;;;11.20;7.10;;;20.90;99.90;;;;;;5071687;28;20058;-59
2023/09/05 06:50:05;;;;;;;14.32;7.82;;;21.00;99.90;;;;;;5070848;28;20028;-58
2023/09/05 06:52:33;;;;;;;10.88;7.60;;;21.00;99.90;;;;;;5087110;28;20472;-60
2023/09/05 06:54:59;;;;;;;11.65;7.80;;;21.00;99.90;;;;;;5091194;28;20016;-59
2023/09/05 06:57:26;;;;;;;11.50;7.50;;;20.90;99.90;;;;;;5091479;28;20089;-59
2023/09/05 06:59:52;;;;;;;13.52;7.57;;;20.80;99.90;;;;;;5091780;28;20024;-59
2023/09/05 07:02:18;;;;;;;12.23;7.55;;;20.60;99.90;;;;;;5091239;28;20028;-59
2023/09/05 07:04:44;;;;;;;9.40;7.25;;;20.50;99.90;;;;;;5090598;28;20165;-59
2023/09/05 07:07:10;;;;;;;8.85;7.18;;;20.40;99.90;;;;;;5091719;28;20114;-59
2023/09/05 07:09:36;;;;;;;10.25;7.10;;;20.40;99.90;;;;;;5091257;28;20039;-59
2023/09/05 07:12:04;;;;;;;8.88;7.15;;;20.40;99.90;;;;;;5091212;28;20452;-59
2023/09/05 07:14:30;;;;;;;10.40;7.40;;;20.40;99.90;;;;;;5091218;28;20028;-59
2023/09/05 07:16:55;;;;;;;11.13;6.95;;;20.40;99.90;;;;;;5091168;28;20498;-59
2023/09/05 07:19:21;;;;;;;9.35;7.03;;;20.50;99.90;;;;;;5090984;28;20119;-59
2023/09/05 07:21:47;;;;;;;12.13;7.50;;;20.40;99.90;;;;;;5071152;28;20034;-59
2023/09/05 07:24:14;;;;;;;8.90;6.90;;;20.50;99.90;;;;;;5070856;28;20032;-59
2023/09/05 07:26:41;;;;;;;9.13;7.03;;;20.50;99.90;;;;;;5070658;28;20028;-59
2023/09/05 07:29:12;;;;;;;10.75;7.30;;;20.50;99.90;;;;;;5071169;28;20041;-60
2023/09/05 07:31:38;;;;;;;11.68;7.03;;;20.50;99.90;;;;;;5070654;28;20028;-59
2023/09/05 07:34:04;;;;;;;11.15;7.40;;;20.60;99.90;;;;;;5070420;28;20107;-59
2023/09/05 07:36:31;;;;;;;12.85;7.35;;;20.70;99.90;;;;;;5070801;28;20032;-59
2023/09/05 07:38:58;;;;;;;8.38;7.13;;;20.80;99.90;;;;;;5071084;28;20433;-59
2023/09/05 07:41:24;;;;;;;10.52;7.78;;;20.80;99.90;;;;;;5070675;28;20555;-59
2023/09/05 07:43:50;;;;;;;11.80;7.45;;;20.90;99.90;;;;;;5070752;28;20024;-59
2023/09/05 07:46:15;;;;;;;10.10;7.50;;;21.10;99.90;;;;;;5070333;28;20099;-59
2023/09/05 07:48:41;;;;;;;12.18;7.15;;;21.30;99.90;;;;;;5070382;28;20035;-60
2023/09/05 07:51:07;;;;;;;11.95;8.07;;;21.40;99.90;;;;;;5070606;28;20071;-59
2023/09/05 07:53:37;;;;;;;13.85;7.30;;;21.50;99.90;;;;;;5070635;28;20083;-59
2023/09/05 07:56:03;;;;;;;9.93;7.10;;;21.70;99.90;;;;;;5070576;28;20485;-59
2023/09/05 07:58:30;;;;;;;13.45;7.13;;;21.80;99.90;;;;;;5070681;28;20439;-59
2023/09/05 08:00:56;;;;;;;12.45;7.47;;;21.90;99.90;;;;;;5070710;28;20050;-59
2023/09/05 08:03:22;;;;;;;10.50;6.80;;;22.00;99.90;;;;;;5070473;28;20107;-59
2023/09/05 08:05:48;;;;;;;13.63;7.63;;;22.10;99.90;;;;;;5071795;28;20071;-59
2023/09/05 08:08:17;;;;;;;13.60;7.68;;;22.10;99.90;;;;;;5056342;28;20060;-59
2023/09/05 08:10:43;;;;;;;8.93;6.72;;;22.30;99.90;;;;;;5074003;28;20027;-60
2023/09/05 08:13:13;;;;;;;9.88;7.38;;;22.40;99.90;;;;;;5074242;28;20032;-59
2023/09/05 08:15:41;;;;;;;10.50;7.07;;;22.40;99.90;;;;;;5074065;28;20039;-59
2023/09/05 08:18:07;;;;;;;10.45;7.45;;;22.40;99.90;;;;;;5073908;28;20029;-58
2023/09/05 08:20:33;;;;;;;13.25;7.22;;;22.40;99.90;;;;;;5073998;28;20025;-60
2023/09/05 08:23:01;;;;;;;12.27;7.22;;;22.40;99.90;;;;;;5074124;28;20032;-58
2023/09/05 08:25:26;;;;;;;14.35;7.10;;;22.50;99.90;;;;;;5073897;28;20512;-59
2023/09/05 08:27:53;;;;;;;10.65;6.90;;;22.40;99.90;;;;;;5073790;28;20083;-60
2023/09/05 08:30:24;;;;;;;13.10;6.93;;;22.40;99.90;;;;;;5073897;28;20017;-59
2023/09/05 08:32:50;;;;;;;15.10;6.93;;;22.50;99.90;;;;;;5073737;28;20033;-58
2023/09/05 08:35:16;;;;;;;17.35;7.90;;;22.50;99.90;;;;;;5074056;28;20031;-59
2023/09/05 08:37:43;;;;;;;15.85;7.60;;;22.60;99.90;;;;;;5073881;28;20032;-59
2023/09/05 08:40:09;;;;;;;13.02;7.22;;;22.60;99.90;;;;;;5073675;28;20036;-59
2023/09/05 08:42:37;;;;;;;11.40;7.38;;;22.70;99.90;;;;;;5073742;28;20059;-60
2023/09/05 08:45:04;;;;;;;13.30;7.60;;;22.80;99.90;;;;;;5073395;28;20020;-59
2023/09/05 08:47:30;;;;;;;16.55;8.00;;;22.90;99.90;;;;;;5073185;28;20037;-59
2023/09/05 08:49:59;;;;;;;13.63;7.97;;;23.00;99.90;;;;;;5073529;28;20071;-60
2023/09/05 08:52:31;;;;;;;18.10;7.95;;;23.10;99.90;;;;;;5073420;28;20036;-59
2023/09/05 08:54:58;;;;;;;14.82;7.97;;;23.10;99.90;;;;;;5073439;28;20024;-59
2023/09/05 08:57:25;;;;;;;12.68;7.93;;;23.20;99.90;;;;;;5073779;28;20029;-59
2023/09/05 08:59:52;;;;;;;13.85;7.97;;;23.30;99.90;;;;;;5072933;28;20595;-59
2023/09/05 09:02:17;;;;;;;16.58;8.15;;;23.40;99.90;;;;;;5073273;28;20374;-59
2023/09/05 09:04:51;;;;;;;12.90;7.38;;;23.60;99.90;;;;;;5073091;28;20040;-59
2023/09/05 09:07:16;;;;;;;;;;;23.80;99.90;;;;;;5073992;28;20040;-59
2023/09/05 09:09:42;;;;;;;16.35;7.65;;;24.00;99.90;;;;;;5073129;28;19999;-60
2023/09/05 09:12:09;;;;;;;14.25;8.15;;;24.20;99.90;;;;;;5073030;28;20581;-59
2023/09/05 09:14:35;;;;;;;15.68;7.90;;;24.40;99.90;;;;;;5073045;28;20074;-60
2023/09/05 09:17:02;;;;;;;17.00;8.10;;;24.60;99.90;;;;;;5071881;28;20036;-60
2023/09/05 09:19:30;;;;;;;16.85;8.05;;;24.80;99.90;;;;;;5072697;28;20070;-59
2023/09/05 09:22:01;;;;;;;23.23;7.70;;;24.80;99.90;;;;;;5073370;28;20028;-59
2023/09/05 09:24:34;;;;;;;21.65;8.07;;;24.90;99.90;;;;;;5073040;28;20063;-59
2023/09/05 09:27:02;;;;;;;17.73;8.60;;;25.00;99.90;;;;;;5072592;28;20044;-59
2023/09/05 09:29:28;;;;;;;19.05;7.43;;;25.10;99.90;;;;;;5072653;28;20055;-59
2023/09/05 09:32:22;;;;;;;17.85;7.75;;;25.20;99.90;;;;;;5072677;28;20029;-59
2023/09/05 09:34:48;;;;;;;;;;;25.30;99.90;;;;;;5071159;28;20474;-60
2023/09/05 09:37:24;;;;;;;18.65;7.40;;;25.40;99.90;;;;;;5072663;28;19912;-60
2023/09/05 09:39:55;;;;;;;20.15;7.93;;;25.40;99.90;;;;;;5072905;28;20431;-59
2023/09/05 09:42:25;;;;;;;22.15;8.07;;;25.50;99.90;;;;;;5072144;28;20029;-60
2023/09/05 09:44:52;;;;;;;24.92;8.43;;;25.50;99.90;;;;;;5072454;28;20028;-59
2023/09/05 09:47:18;;;;;;;26.08;8.00;;;25.40;99.90;;;;;;5072737;28;20036;-59
2023/09/05 09:49:48;;;;;;;18.65;7.95;;;25.40;99.90;;;;;;5072235;28;20112;-59
2023/09/05 09:52:15;;;;;;;23.55;7.82;;;25.50;99.90;;;;;;5072179;28;20035;-60
2023/09/05 09:54:44;;;;;;;21.42;7.82;;;25.60;99.90;;;;;;5072140;28;20099;-59
2023/09/05 09:57:15;;;;;;;23.00;8.23;;;25.70;99.90;;;;;;5071920;28;20028;-59
2023/09/05 09:59:49;;;;;;;20.75;7.78;;;25.80;99.90;;;;;;5071999;28;20029;-59
2023/09/05 10:02:16;;;;;;;20.77;7.45;;;25.80;99.90;;;;;;5072461;28;20393;-59
2023/09/05 10:04:43;;;;;;;23.77;8.10;;;25.90;99.90;;;;;;5071656;28;20442;-59
2023/09/05 10:07:14;;;;;;;25.02;7.68;;;26.00;99.90;;;;;;5071945;28;20094;-59
2023/09/05 10:09:42;;;;;;;22.60;7.72;;;26.10;99.90;;;;;;5071494;28;20049;-58
2023/09/05 10:12:08;;;;;;;22.17;7.03;;;26.10;99.90;;;;;;5071300;28;20094;-60
2023/09/05 10:14:36;;;;;;;23.40;7.45;;;26.20;99.90;;;;;;5071657;28;20013;-60
2023/09/05 10:17:03;;;;;;;26.75;7.10;;;26.30;99.90;;;;;;5071743;28;20030;-60
2023/09/05 10:19:30;;;;;;;24.90;7.78;;;26.40;99.90;;;;;;5071956;28;20112;-60
2023/09/05 10:21:58;;;;;;;25.05;7.90;;;26.40;99.90;;;;;;5071753;28;20020;-59
2023/09/05 10:24:30;;;;;;;22.98;7.43;;;26.50;99.90;;;;;;5071749;28;20099;-60
2023/09/05 10:26:56;;;;;;;25.57;7.80;;;26.60;99.90;;;;;;5070922;28;20052;-59
2023/09/05 10:29:43;;;;;;;24.35;8.02;;;26.80;99.90;;;;;;5071041;28;20124;-60
2023/09/05 10:32:09;;;;;;;31.30;8.70;;;26.90;99.90;;;;;;5071614;28;20115;-60
2023/09/05 10:34:47;;;;;;;25.88;7.65;;;27.10;99.90;;;;;;5071569;28;20092;-60
2023/09/05 10:37:13;;;;;;;24.08;7.55;;;27.20;99.90;;;;;;5071409;28;20033;-60
2023/09/05 10:39:45;;;;;;;28.75;8.20;;;27.30;99.90;;;;;;5071185;28;20035;-60
2023/09/05 10:42:14;;;;;;;36.33;9.45;;;27.50;99.90;;;;;;5070897;28;20032;-60
2023/09/05 10:44:45;;;;;;;40.72;8.50;;;27.50;99.90;;;;;;5071636;28;20021;-60
2023/09/05 10:47:27;;;;;;;32.55;8.65;;;27.70;99.90;;;;;;5071242;28;20044;-60
2023/09/05 10:50:03;;;;;;;32.65;8.73;;;27.70;99.90;;;;;;5071327;28;20032;-60
2023/09/05 10:52:29;;;;;;;41.38;9.55;;;27.80;99.90;;;;;;5070796;28;20036;-60
2023/09/05 10:54:58;;;;;;;37.10;9.25;;;27.90;99.90;;;;;;5070735;28;20173;-61
2023/09/05 10:57:34;;;;;;;33.67;10.63;;;28.00;99.90;;;;;;5070913;28;20103;-60
2023/09/05 11:00:15;;;;;;;32.70;11.38;;;28.10;99.90;;;;;;5070979;28;20024;-60
2023/09/05 11:02:46;;;;;;;27.60;12.50;;;28.10;99.90;;;;;;5071404;28;20130;-60
2023/09/05 11:05:19;;;;;;;25.15;11.95;;;28.00;99.90;;;;;;5071321;28;20021;-60
2023/09/05 11:07:46;;;;;;;32.63;13.25;;;28.00;99.90;;;;;;5070972;28;20090;-60
2023/09/05 11:10:28;;;;;;;30.38;12.15;;;27.80;99.90;;;;;;5070307;28;20103;-60
2023/09/05 11:12:54;;;;;;;37.70;10.70;;;27.90;99.90;;;;;;5070827;28;20035;-61
2023/09/05 11:15:30;;;;;;;32.78;11.90;;;27.90;99.90;;;;;;5071061;28;20024;-60
2023/09/05 11:18:09;;;;;;;38.10;12.02;;;27.90;99.90;;;;;;5071271;28;20441;-60
2023/09/05 11:20:43;;;;;;;32.80;11.40;;;28.00;99.90;;;;;;5070937;28;20032;-61
2023/09/05 11:23:20;;;;;;;31.05;10.23;;;28.00;99.90;;;;;;5070825;28;20036;-60
2023/09/05 11:26:00;;;;;;;23.48;9.30;;;28.00;99.90;;;;;;5070463;28;20451;-61
2023/09/05 11:28:26;;;;;;;33.97;9.98;;;28.00;99.90;;;;;;5070492;28;20061;-61
2023/09/05 11:31:03;;;;;;;26.88;9.68;;;28.00;99.90;;;;;;5071094;28;20020;-61
2023/09/05 11:33:29;;;;;;;28.75;8.27;;;28.10;99.90;;;;;;5070998;28;20032;-60
2023/09/05 11:35:54;;;;;;;32.17;8.80;;;28.40;99.90;;;;;;5070335;28;20036;-60
2023/09/05 11:38:22;;;;;;;33.75;9.10;;;28.20;99.90;;;;;;5069720;28;20028;-60
2023/09/05 11:40:55;;;;;;;41.95;9.70;;;28.20;99.90;;;;;;5071795;28;20435;-60
2023/09/05 11:43:24;;;;;;;48.97;10.80;;;28.20;99.90;;;;;;5075137;28;20492;-60
2023/09/05 11:45:55;;;;;;;48.33;10.40;;;28.20;99.90;;;;;;5074579;28;20587;-60
2023/09/05 11:48:23;;;;;;;39.65;9.85;;;28.20;99.90;;;;;;5074574;28;20017;-60
2023/09/05 11:50:49;;;;;;;44.20;10.55;;;28.20;99.90;;;;;;5074399;28;20028;-59
2023/09/05 11:53:19;;;;;;;42.75;10.02;;;28.30;99.90;;;;;;5074337;28;20063;-60
2023/09/05 11:55:46;;;;;;;32.83;9.30;;;28.50;99.90;;;;;;5074526;28;20023;-60
2023/09/05 11:58:14;;;;;;;44.88;9.38;;;28.70;99.90;;;;;;5074642;28;20572;-60
2023/09/05 12:00:45;;;;;;;44.08;10.40;;;28.80;99.90;;;;;;5074378;28;20028;-60
2023/09/05 12:03:15;;;;;;;42.47;10.23;;;29.10;99.90;;;;;;5074410;28;20436;-60
2023/09/05 12:05:41;;;;;;;38.47;9.70;;;29.30;99.90;;;;;;5074540;28;20127;-60
2023/09/05 12:08:07;;;;;;;48.40;9.73;;;29.50;99.90;;;;;;5074218;28;20025;-60
2023/09/05 12:10:41;;;;;;;47.88;10.45;;;29.50;99.90;;;;;;5074286;28;20032;-60
2023/09/05 12:13:07;;;;;;;43.40;10.85;;;29.40;99.90;;;;;;5056326;28;20044;-59
2023/09/05 12:15:34;;;;;;;54.50;11.48;;;29.40;99.90;;;;;;5074304;28;20028;-60
2023/09/05 12:18:05;;;;;;;51.95;11.35;;;29.50;99.90;;;;;;5074423;28;20040;-60
2023/09/05 12:20:32;;;;;;;57.60;11.18;;;29.40;99.90;;;;;;5056185;28;20409;-60
2023/09/05 12:22:58;;;;;;;52.65;10.48;;;29.40;99.90;;;;;;5073886;28;20048;-60
2023/09/05 12:25:26;;;;;;;61.28;11.30;;;29.40;99.90;;;;;;5073872;28;20564;-60
2023/09/05 12:27:58;;;;;;;53.35;10.45;;;29.60;99.90;;;;;;5074190;28;20056;-60
2023/09/05 12:30:24;;;;;;;51.22;10.80;;;29.60;99.90;;;;;;5073763;28;20420;-60
2023/09/05 12:32:52;;;;;;;47.13;10.40;;;29.60;99.90;;;;;;5073984;28;20024;-61
2023/09/05 12:35:18;;;;;;;51.50;10.48;;;29.80;99.90;;;;;;5073790;28;20444;-60
2023/09/05 12:37:44;;;;;;;47.30;10.77;;;29.80;99.90;;;;;;5073747;28;20029;-60